createdAt,value
2023-05-14T00:00:27.260Z,175.97
2023-05-14T00:01:27.270Z,178.54
2023-05-14T00:02:27.451Z,176.53
2023-05-14T00:03:27.424Z,176.74
2023-05-14T00:04:27.343Z,173.13
2023-05-14T00:05:27.273Z,175.48
2023-05-14T00:06:27.303Z,174.00
2023-05-14T00:07:27.291Z,175.64
2023-05-14T00:08:27.278Z,174.23
2023-05-14T00:09:27.300Z,173.48
2023-05-14T00:10:27.291Z,176.38
2023-05-14T00:11:27.280Z,176.97
2023-05-14T00:12:27.288Z,176.67
2023-05-14T00:13:27.306Z,178.65
2023-05-14T00:14:27.285Z,175.26
2023-05-14T00:15:27.297Z,172.44
2023-05-14T00:16:27.354Z,172.82
2023-05-14T00:17:27.389Z,174.46
2023-05-14T00:18:27.362Z,177.32
2023-05-14T00:19:27.375Z,173.31
2023-05-14T00:20:27.393Z,176.92
2023-05-14T00:21:27.423Z,174.63
2023-05-14T00:22:27.420Z,176.63
2023-05-14T00:23:27.444Z,175.10
2023-05-14T00:24:27.460Z,177.21
2023-05-14T00:25:27.512Z,178.18
2023-05-14T00:26:27.504Z,173.05
2023-05-14T00:27:27.534Z,175.44
2023-05-14T00:28:27.548Z,179.04
2023-05-14T00:29:27.557Z,173.88
2023-05-14T00:30:27.578Z,176.34
2023-05-14T00:31:27.635Z,177.82
2023-05-14T00:32:27.643Z,176.45
2023-05-14T00:33:27.637Z,175.71
2023-05-14T00:34:27.656Z,177.80
2023-05-14T00:35:27.678Z,178.37
2023-05-14T00:36:27.713Z,175.97
2023-05-14T00:37:27.746Z,173.63
2023-05-14T00:38:27.748Z,174.96
2023-05-14T00:39:27.780Z,176.91
2023-05-14T00:40:27.801Z,176.52
2023-05-14T00:41:27.820Z,174.04
2023-05-14T00:42:27.860Z,174.07
2023-05-14T00:43:27.861Z,175.79
2023-05-14T00:44:27.886Z,177.15
2023-05-14T00:45:27.911Z,174.98
2023-05-14T00:46:27.951Z,175.97
2023-05-14T00:47:27.945Z,176.18
2023-05-14T00:48:27.962Z,173.56
2023-05-14T00:49:27.978Z,177.98
2023-05-14T00:50:27.997Z,173.34
2023-05-14T00:51:28.003Z,174.26
2023-05-14T00:52:28.009Z,176.87
2023-05-14T00:53:28.003Z,176.45
2023-05-14T00:54:28.010Z,175.93
2023-05-14T00:55:28.036Z,176.15
2023-05-14T00:56:28.014Z,176.22
2023-05-14T00:57:28.034Z,172.75
2023-05-14T00:58:28.048Z,174.38
2023-05-14T00:59:28.051Z,176.39
2023-05-14T01:00:28.095Z,174.33
2023-05-14T01:01:28.144Z,174.92
2023-05-14T01:02:28.147Z,175.38
2023-05-14T01:03:28.131Z,173.36
2023-05-14T01:04:28.094Z,174.01
2023-05-14T01:05:28.127Z,173.20
2023-05-14T01:06:28.090Z,174.20
2023-05-14T01:07:28.149Z,175.17
2023-05-14T01:08:28.101Z,175.93
2023-05-14T01:09:28.135Z,174.51
2023-05-14T01:10:28.148Z,175.05
2023-05-14T01:11:28.140Z,174.89
2023-05-14T01:12:28.153Z,175.27
2023-05-14T01:13:28.175Z,172.91
2023-05-14T01:14:28.204Z,175.32
2023-05-14T01:15:28.227Z,175.07
2023-05-14T01:16:28.300Z,173.44
2023-05-14T01:17:28.256Z,175.69
2023-05-14T01:18:28.341Z,174.96
2023-05-14T01:19:28.314Z,175.85
2023-05-14T01:20:28.346Z,175.92
2023-05-14T01:21:28.343Z,174.88
2023-05-14T01:22:28.392Z,172.48
2023-05-14T01:23:28.377Z,175.18
2023-05-14T01:24:28.423Z,175.05
2023-05-14T01:25:28.410Z,177.73
2023-05-14T01:26:28.433Z,173.05
2023-05-14T01:27:28.446Z,172.33
2023-05-14T01:28:28.474Z,172.66
2023-05-14T01:29:28.486Z,175.76
2023-05-14T01:30:28.508Z,175.01
2023-05-14T01:31:28.641Z,176.79
2023-05-14T01:32:28.591Z,173.48
2023-05-14T01:33:28.574Z,173.22
2023-05-14T01:34:28.614Z,172.60
2023-05-14T01:35:28.632Z,172.60
2023-05-14T01:36:28.641Z,173.03
2023-05-14T01:37:28.668Z,173.90
2023-05-14T01:38:28.673Z,175.07
2023-05-14T01:39:28.688Z,174.38
2023-05-14T01:40:28.722Z,170.78
2023-05-14T01:41:28.748Z,177.11
2023-05-14T01:42:28.759Z,173.39
2023-05-14T01:43:28.855Z,176.09
2023-05-14T01:44:28.803Z,176.22
2023-05-14T01:45:28.821Z,174.53
2023-05-14T01:46:28.885Z,174.88
2023-05-14T01:47:28.971Z,172.63
2023-05-14T01:48:28.895Z,173.65
2023-05-14T01:49:28.916Z,173.77
2023-05-14T01:50:28.953Z,174.34
2023-05-14T01:51:28.979Z,175.33
2023-05-14T01:52:28.992Z,176.82
2023-05-14T01:53:29.018Z,173.87
2023-05-14T01:54:29.023Z,173.13
2023-05-14T01:55:29.056Z,174.30
2023-05-14T01:56:29.071Z,172.55
2023-05-14T01:57:29.084Z,173.41
2023-05-14T01:58:29.097Z,173.40
2023-05-14T01:59:29.114Z,173.69
2023-05-14T02:00:29.124Z,172.23
2023-05-14T02:01:29.152Z,174.23
2023-05-14T02:02:29.170Z,174.29
2023-05-14T02:03:29.170Z,172.72
2023-05-14T02:04:29.168Z,175.15
2023-05-14T02:05:29.177Z,177.53
2023-05-14T02:06:29.200Z,176.58
2023-05-14T02:07:29.211Z,174.31
2023-05-14T02:08:29.225Z,170.45
2023-05-14T02:09:29.247Z,170.08
2023-05-14T02:10:29.284Z,172.32
2023-05-14T02:11:29.305Z,174.09
2023-05-14T02:12:29.319Z,171.89
2023-05-14T02:13:29.341Z,175.32
2023-05-14T02:14:29.368Z,171.78
2023-05-14T02:15:29.394Z,173.34
2023-05-14T02:16:29.562Z,172.62
2023-05-14T02:17:29.491Z,174.25
2023-05-14T02:18:29.518Z,172.86
2023-05-14T02:19:29.516Z,174.74
2023-05-14T02:20:29.521Z,172.13
2023-05-14T02:21:29.542Z,172.03
2023-05-14T02:22:29.569Z,173.82
2023-05-14T02:23:40.512Z,175.12
2023-05-14T02:24:30.572Z,175.31
2023-05-14T02:25:29.582Z,175.10
2023-05-14T02:26:29.556Z,174.57
2023-05-14T02:27:29.586Z,173.14
2023-05-14T02:28:29.557Z,173.41
2023-05-14T02:29:29.533Z,172.88
2023-05-14T02:30:29.535Z,170.21
2023-05-14T02:31:29.554Z,172.43
2023-05-14T02:32:29.553Z,173.10
2023-05-14T02:33:29.536Z,170.10
2023-05-14T02:34:29.506Z,172.81
2023-05-14T02:35:29.532Z,171.86
2023-05-14T02:36:29.534Z,172.69
2023-05-14T02:37:29.478Z,172.61
2023-05-14T02:38:29.468Z,173.61
2023-05-14T02:39:29.467Z,172.12
2023-05-14T02:40:29.473Z,172.47
2023-05-14T02:41:29.450Z,173.04
2023-05-14T02:42:29.461Z,172.40
2023-05-14T02:43:29.460Z,174.75
2023-05-14T02:44:29.472Z,172.63
2023-05-14T02:45:29.554Z,171.97
2023-05-14T02:46:29.563Z,171.48
2023-05-14T02:47:29.603Z,174.15
2023-05-14T02:48:29.588Z,171.62
2023-05-14T02:49:29.631Z,170.20
2023-05-14T02:50:29.664Z,172.61
2023-05-14T02:51:29.681Z,172.93
2023-05-14T02:52:29.704Z,171.62
2023-05-14T02:53:29.747Z,171.31
2023-05-14T02:54:29.804Z,169.56
2023-05-14T02:55:29.821Z,172.96
2023-05-14T02:56:29.857Z,171.33
2023-05-14T02:57:29.891Z,173.13
2023-05-14T02:58:29.909Z,172.71
2023-05-14T02:59:29.939Z,173.66
2023-05-14T03:00:29.965Z,174.56
2023-05-14T03:01:30.023Z,172.52
2023-05-14T03:02:30.096Z,170.27
2023-05-14T03:03:30.118Z,172.43
2023-05-14T03:04:30.070Z,172.65
2023-05-14T03:05:30.107Z,170.87
2023-05-14T03:06:30.122Z,172.73
2023-05-14T03:07:30.134Z,173.13
2023-05-14T03:08:30.164Z,169.15
2023-05-14T03:09:30.194Z,174.33
2023-05-14T03:10:30.233Z,173.05
2023-05-14T03:11:30.247Z,168.23
2023-05-14T03:12:30.281Z,172.66
2023-05-14T03:13:30.288Z,167.20
2023-05-14T03:14:30.321Z,170.53
2023-05-14T03:15:30.354Z,172.68
2023-05-14T03:16:30.399Z,170.43
2023-05-14T03:17:30.448Z,173.11
2023-05-14T03:18:30.464Z,171.24
2023-05-14T03:19:30.462Z,171.87
2023-05-14T03:20:30.479Z,172.25
2023-05-14T03:21:30.516Z,171.73
2023-05-14T03:22:30.532Z,171.97
2023-05-14T03:23:30.561Z,171.39
2023-05-14T03:24:30.591Z,170.17
2023-05-14T03:25:30.627Z,169.21
2023-05-14T03:26:30.660Z,173.04
2023-05-14T03:27:30.687Z,170.44
2023-05-14T03:28:30.712Z,169.64
2023-05-14T03:29:30.738Z,170.12
2023-05-14T03:30:30.815Z,170.24
2023-05-14T03:31:30.790Z,171.37
2023-05-14T03:32:30.887Z,171.58
2023-05-14T03:33:30.824Z,171.78
2023-05-14T03:34:30.862Z,172.54
2023-05-14T03:35:30.864Z,173.83
2023-05-14T03:36:30.890Z,170.46
2023-05-14T03:37:30.939Z,171.28
2023-05-14T03:38:30.956Z,172.26
2023-05-14T03:39:31.010Z,169.37
2023-05-14T03:40:31.025Z,170.06
2023-05-14T03:41:31.021Z,169.56
2023-05-14T03:42:31.044Z,172.42
2023-05-14T03:43:31.070Z,169.67
2023-05-14T03:44:31.105Z,173.28
2023-05-14T03:45:31.145Z,169.83
2023-05-14T03:46:31.156Z,169.73
2023-05-14T03:47:31.215Z,170.20
2023-05-14T03:48:31.248Z,170.74
2023-05-14T03:49:31.248Z,166.57
2023-05-14T03:50:31.271Z,169.10
2023-05-14T03:51:31.318Z,171.01
2023-05-14T03:52:31.330Z,168.88
2023-05-14T03:53:31.363Z,169.39
2023-05-14T03:54:31.388Z,169.34
2023-05-14T03:55:31.432Z,171.32
2023-05-14T03:56:31.446Z,167.39
2023-05-14T03:57:31.482Z,169.56
2023-05-14T03:58:31.512Z,168.00
2023-05-14T03:59:31.555Z,171.81
2023-05-14T04:00:31.555Z,170.38
2023-05-14T04:01:31.605Z,169.06
2023-05-14T04:02:31.680Z,169.20
2023-05-14T04:03:32.207Z,169.80
2023-05-14T04:04:31.707Z,168.34
2023-05-14T04:05:31.691Z,170.25
2023-05-14T04:06:31.721Z,170.47
2023-05-14T04:07:31.730Z,170.68
2023-05-14T04:08:31.736Z,168.58
2023-05-14T04:09:31.772Z,167.97
2023-05-14T04:10:31.792Z,167.13
2023-05-14T04:11:31.824Z,168.93
2023-05-14T04:12:31.842Z,169.87
2023-05-14T04:13:31.870Z,168.50
2023-05-14T04:14:31.897Z,166.79
2023-05-14T04:15:31.910Z,169.41
2023-05-14T04:16:31.942Z,167.65
2023-05-14T04:17:32.981Z,167.02
2023-05-14T04:18:31.977Z,167.58
2023-05-14T04:19:31.965Z,169.04
2023-05-14T04:20:31.972Z,168.01
2023-05-14T04:21:31.993Z,172.05
2023-05-14T04:22:32.024Z,168.61
2023-05-14T04:23:32.058Z,168.76
2023-05-14T04:24:32.046Z,167.40
2023-05-14T04:25:32.067Z,168.66
2023-05-14T04:26:32.083Z,168.60
2023-05-14T04:27:32.091Z,169.64
2023-05-14T04:28:32.116Z,168.24
2023-05-14T04:29:32.125Z,169.04
2023-05-14T04:30:32.141Z,167.26
2023-05-14T04:31:32.167Z,167.43
2023-05-14T04:32:32.183Z,168.85
2023-05-14T04:33:32.180Z,167.20
2023-05-14T04:34:32.192Z,170.55
2023-05-14T04:35:32.214Z,167.19
2023-05-14T04:36:32.248Z,168.99
2023-05-14T04:37:32.257Z,166.99
2023-05-14T04:38:32.303Z,167.86
2023-05-14T04:39:32.312Z,168.63
2023-05-14T04:40:32.313Z,167.75
2023-05-14T04:41:32.380Z,167.74
2023-05-14T04:42:32.458Z,165.40
2023-05-14T04:43:32.359Z,167.69
2023-05-14T04:44:32.363Z,168.53
2023-05-14T04:45:34.277Z,168.16
2023-05-14T04:46:32.445Z,167.77
2023-05-14T04:47:32.459Z,168.88
2023-05-14T04:48:32.464Z,168.53
2023-05-14T04:49:32.454Z,167.77
2023-05-14T04:50:32.479Z,168.04
2023-05-14T04:51:32.526Z,165.72
2023-05-14T04:52:32.512Z,162.44
2023-05-14T04:53:32.531Z,168.60
2023-05-14T04:54:32.559Z,166.85
2023-05-14T04:55:32.578Z,168.13
2023-05-14T04:56:32.585Z,168.78
2023-05-14T04:57:32.590Z,168.36
2023-05-14T04:58:34.637Z,167.60
2023-05-14T04:59:32.699Z,166.19
2023-05-14T05:00:32.724Z,167.42
2023-05-14T05:01:32.754Z,167.15
2023-05-14T05:02:32.781Z,165.39
2023-05-14T05:03:32.809Z,164.81
2023-05-14T05:04:32.781Z,168.24
2023-05-14T05:05:32.806Z,165.85
2023-05-14T05:06:32.844Z,166.25
2023-05-14T05:07:32.876Z,165.76
2023-05-14T05:08:32.881Z,167.67
2023-05-14T05:09:32.875Z,165.51
2023-05-14T05:10:32.879Z,166.91
2023-05-14T05:11:32.913Z,166.13
2023-05-14T05:12:32.925Z,165.48
2023-05-14T05:13:32.989Z,165.57
2023-05-14T05:14:32.960Z,167.27
2023-05-14T05:15:33.008Z,164.05
2023-05-14T05:16:33.093Z,167.59
2023-05-14T05:17:33.064Z,161.95
2023-05-14T05:18:33.037Z,167.07
2023-05-14T05:19:43.051Z,165.65
2023-05-14T05:20:34.030Z,165.85
2023-05-14T05:21:33.039Z,165.22
2023-05-14T05:22:33.024Z,165.69
2023-05-14T05:23:33.008Z,167.34
2023-05-14T05:24:33.000Z,166.65
2023-05-14T05:25:32.989Z,162.60
2023-05-14T05:26:33.007Z,165.94
2023-05-14T05:28:32.983Z,165.00
2023-05-14T05:29:32.969Z,164.32
2023-05-14T05:30:32.953Z,165.12
2023-05-14T05:31:33.022Z,166.10
2023-05-14T05:32:33.076Z,165.60
2023-05-14T05:33:32.944Z,165.05
2023-05-14T05:34:32.936Z,167.77
2023-05-14T05:35:32.925Z,167.19
2023-05-14T05:36:32.933Z,165.44
2023-05-14T05:37:32.921Z,167.76
2023-05-14T05:38:32.897Z,164.49
2023-05-14T05:39:32.910Z,164.67
2023-05-14T05:40:32.930Z,167.79
2023-05-14T05:41:32.962Z,167.44
2023-05-14T05:42:33.005Z,164.23
2023-05-14T05:43:33.010Z,165.43
2023-05-14T05:44:33.050Z,162.26
2023-05-14T05:45:33.068Z,162.74
2023-05-14T05:46:33.168Z,163.19
2023-05-14T05:47:33.134Z,163.92
2023-05-14T05:48:33.147Z,161.97
2023-05-14T05:49:33.183Z,164.83
2023-05-14T05:50:33.230Z,162.16
2023-05-14T05:51:33.265Z,161.75
2023-05-14T05:52:33.269Z,162.33
2023-05-14T05:53:33.292Z,163.56
2023-05-14T05:54:33.328Z,161.31
2023-05-14T05:55:33.367Z,166.72
2023-05-14T05:56:33.394Z,161.83
2023-05-14T05:57:33.407Z,164.24
2023-05-14T05:58:33.441Z,162.66
2023-05-14T05:59:33.471Z,163.40
2023-05-14T06:00:33.512Z,163.08
2023-05-14T06:01:33.541Z,164.22
2023-05-14T06:02:33.747Z,164.00
2023-05-14T06:03:33.584Z,161.57
2023-05-14T06:04:33.617Z,163.05
2023-05-14T06:05:33.686Z,163.29
2023-05-14T06:06:33.693Z,163.21
2023-05-14T06:08:22.696Z,25.00
2023-05-14T06:09:22.651Z,25.00
2023-05-14T06:10:22.862Z,25.00
2023-05-14T06:11:22.678Z,25.00
2023-05-14T06:12:22.642Z,25.00
2023-05-14T06:13:22.641Z,26.45
2023-05-14T06:14:22.623Z,25.87
2023-05-14T06:15:22.637Z,25.00
2023-05-14T06:16:22.730Z,26.27
2023-05-14T06:17:22.648Z,28.18
2023-05-14T06:18:22.587Z,30.02
2023-05-14T06:19:22.595Z,28.52
2023-05-14T06:20:22.684Z,26.82
2023-05-14T06:21:22.567Z,28.57
2023-05-14T06:22:22.560Z,28.90
2023-05-14T06:23:22.549Z,28.65
2023-05-14T06:24:22.541Z,30.05
2023-05-14T06:25:22.543Z,28.09
2023-05-14T06:26:22.541Z,27.64
2023-05-14T06:27:22.554Z,28.80
2023-05-14T06:28:22.512Z,30.22
2023-05-14T06:29:22.510Z,28.64
2023-05-14T06:30:22.817Z,28.61
2023-05-14T06:31:22.528Z,26.93
2023-05-14T06:32:22.576Z,30.06
2023-05-14T06:33:22.478Z,29.39
2023-05-14T06:34:22.471Z,28.64
2023-05-14T06:35:22.497Z,30.05
2023-05-14T06:36:22.458Z,29.16
2023-05-14T06:37:22.453Z,26.50
2023-05-14T06:38:22.448Z,30.00
2023-05-14T06:39:22.429Z,27.90
2023-05-14T06:40:22.936Z,31.61
2023-05-14T06:41:22.418Z,30.72
2023-05-14T06:42:22.424Z,31.51
2023-05-14T06:43:22.406Z,28.45
2023-05-14T06:44:22.390Z,31.22
2023-05-14T06:45:22.403Z,29.83
2023-05-14T06:46:22.404Z,29.01
2023-05-14T06:47:22.426Z,30.39
2023-05-14T06:48:22.432Z,30.24
2023-05-14T06:49:22.372Z,32.58
2023-05-14T06:50:22.542Z,26.55
2023-05-14T06:51:22.342Z,30.08
2023-05-14T06:52:22.340Z,30.88
2023-05-14T06:53:22.346Z,27.51
2023-05-14T06:54:22.311Z,30.89
2023-05-14T06:55:22.310Z,27.63
2023-05-14T06:56:22.385Z,28.86
2023-05-14T06:57:22.333Z,32.46
2023-05-14T06:58:22.280Z,28.16
2023-05-14T06:59:22.278Z,28.57
2023-05-14T07:00:22.436Z,30.33
2023-05-14T07:01:22.292Z,28.79
2023-05-14T07:02:22.283Z,27.35
2023-05-14T07:03:22.282Z,29.56
2023-05-14T07:04:22.337Z,28.68
2023-05-14T07:05:22.248Z,29.26
2023-05-14T07:06:22.220Z,30.81
2023-05-14T07:07:22.260Z,26.37
2023-05-14T07:08:22.243Z,28.31
2023-05-14T07:09:22.193Z,28.90
2023-05-14T07:10:22.372Z,30.51
2023-05-14T07:11:22.256Z,29.58
2023-05-14T07:12:22.203Z,30.70
2023-05-14T07:13:22.169Z,30.43
2023-05-14T07:14:22.174Z,31.62
2023-05-14T07:15:22.170Z,29.72
2023-05-14T07:16:22.197Z,26.31
2023-05-14T07:17:22.381Z,27.59
2023-05-14T07:18:22.154Z,27.71
2023-05-14T07:19:22.154Z,29.08
2023-05-14T07:20:22.431Z,31.56
2023-05-14T07:21:22.238Z,28.44
2023-05-14T07:22:22.260Z,30.55
2023-05-14T07:23:22.298Z,29.41
2023-05-14T07:24:22.270Z,31.42
2023-05-14T07:25:22.281Z,29.30
2023-05-14T07:26:22.318Z,31.21
2023-05-14T07:27:22.350Z,30.61
2023-05-14T07:28:22.351Z,30.91
2023-05-14T07:29:22.387Z,27.24
2023-05-14T07:30:22.554Z,31.11
2023-05-14T07:31:22.448Z,32.21
2023-05-14T07:32:22.463Z,32.87
2023-05-14T07:33:22.470Z,30.84
2023-05-14T07:34:22.505Z,31.37
2023-05-14T07:35:22.520Z,32.04
2023-05-14T07:36:22.546Z,28.48
2023-05-14T07:37:24.195Z,30.69
2023-05-14T07:38:22.603Z,25.78
2023-05-14T07:39:22.620Z,29.33
2023-05-14T07:40:22.897Z,27.60
2023-05-14T07:41:22.657Z,27.60
2023-05-14T07:42:35.052Z,30.73
2023-05-14T07:43:23.682Z,30.88
2023-05-14T07:44:22.662Z,30.63
2023-05-14T07:45:22.674Z,31.21
2023-05-14T07:46:22.653Z,30.85
2023-05-14T07:47:22.684Z,29.31
2023-05-14T07:48:22.702Z,29.71
2023-05-14T07:49:22.641Z,27.21
2023-05-14T07:50:22.926Z,26.86
2023-05-14T07:51:22.626Z,30.72
2023-05-14T07:52:22.638Z,28.70
2023-05-14T07:53:22.600Z,28.69
2023-05-14T07:54:22.590Z,27.94
2023-05-14T07:55:22.597Z,26.18
2023-05-14T07:56:22.583Z,31.02
2023-05-14T07:57:22.597Z,30.64
2023-05-14T07:58:22.575Z,29.18
2023-05-14T07:59:22.568Z,32.42
2023-05-14T08:00:22.728Z,29.81
2023-05-14T08:01:22.552Z,28.55
2023-05-14T08:02:22.579Z,30.12
2023-05-14T08:03:22.717Z,27.06
2023-05-14T08:04:22.541Z,28.53
2023-05-14T08:05:22.568Z,30.80
2023-05-14T08:06:22.563Z,27.57
2023-05-14T08:07:22.579Z,25.00
2023-05-14T08:08:22.584Z,28.10
2023-05-14T08:09:22.587Z,27.56
2023-05-14T08:10:22.999Z,30.81
2023-05-14T08:11:22.643Z,29.93
2023-05-14T08:12:22.635Z,32.82
2023-05-14T08:13:22.632Z,26.83
2023-05-14T08:14:22.652Z,27.72
2023-05-14T08:15:23.103Z,25.00
2023-05-14T08:16:22.680Z,28.47
2023-05-14T08:17:22.731Z,28.67
2023-05-14T08:18:22.679Z,28.48
2023-05-14T08:19:22.675Z,28.55
2023-05-14T08:20:22.843Z,28.39
2023-05-14T08:21:22.674Z,29.78
2023-05-14T08:22:22.679Z,26.35
2023-05-14T08:23:22.698Z,27.70
2023-05-14T08:24:22.703Z,25.08
2023-05-14T08:25:22.716Z,27.99
2023-05-14T08:26:22.715Z,27.32
2023-05-14T08:27:22.742Z,27.90
2023-05-14T08:28:22.716Z,27.57
2023-05-14T08:29:22.725Z,28.81
2023-05-14T08:30:23.271Z,28.57
2023-05-14T08:31:22.895Z,32.14
2023-05-14T08:32:24.067Z,26.71
2023-05-14T08:33:22.778Z,29.77
2023-05-14T08:34:22.769Z,30.14
2023-05-14T08:35:22.779Z,27.19
2023-05-14T08:36:22.805Z,30.27
2023-05-14T08:37:22.797Z,25.25
2023-05-14T08:38:22.819Z,30.36
2023-05-14T08:39:22.808Z,29.29
2023-05-14T08:40:22.928Z,28.95
2023-05-14T08:41:22.810Z,27.20
2023-05-14T08:42:22.846Z,30.35
2023-05-14T08:43:22.814Z,28.02
2023-05-14T08:44:22.828Z,28.15
2023-05-14T08:45:22.838Z,30.69
2023-05-14T08:46:22.843Z,29.77
2023-05-14T08:47:22.853Z,26.92
2023-05-14T08:48:22.931Z,29.18
2023-05-14T08:49:22.850Z,25.87
2023-05-14T08:50:23.602Z,26.36
2023-05-14T08:51:22.858Z,28.47
2023-05-14T08:52:22.862Z,28.63
2023-05-14T08:53:22.857Z,26.02
2023-05-14T08:54:22.861Z,26.33
2023-05-14T08:55:22.862Z,25.21
2023-05-14T08:56:22.850Z,25.84
2023-05-14T08:57:22.845Z,26.66
2023-05-14T08:58:22.844Z,26.06
2023-05-14T08:59:22.888Z,30.39
2023-05-14T09:00:23.174Z,27.43
2023-05-14T09:01:23.021Z,28.80
2023-05-14T09:02:23.095Z,30.80
2023-05-14T09:03:23.144Z,27.91
2023-05-14T09:04:23.278Z,25.01
2023-05-14T09:05:23.157Z,28.14
2023-05-14T09:06:23.152Z,28.09
2023-05-14T09:07:23.180Z,28.54
2023-05-14T09:08:23.184Z,28.04
2023-05-14T09:09:23.206Z,26.72
2023-05-14T09:10:23.404Z,30.54
2023-05-14T09:11:23.196Z,28.60
2023-05-14T09:12:23.188Z,28.88
2023-05-14T09:13:23.164Z,29.41
2023-05-14T09:14:23.170Z,30.02
2023-05-14T09:15:23.172Z,33.40
2023-05-14T09:16:23.187Z,32.71
2023-05-14T09:17:23.215Z,29.13
2023-05-14T09:18:23.148Z,29.92
2023-05-14T09:19:23.167Z,30.30
2023-05-14T09:20:23.333Z,30.31
2023-05-14T09:21:23.149Z,30.81
2023-05-14T09:22:23.150Z,31.27
2023-05-14T09:23:23.130Z,28.25
2023-05-14T09:24:23.257Z,30.90
2023-05-14T09:25:23.181Z,29.09
2023-05-14T09:26:23.162Z,30.10
2023-05-14T09:27:23.211Z,29.06
2023-05-14T09:28:23.187Z,31.66
2023-05-14T09:29:23.165Z,31.75
2023-05-14T09:30:23.579Z,32.33
2023-05-14T09:31:23.217Z,28.75
2023-05-14T09:32:23.233Z,29.94
2023-05-14T09:33:23.247Z,30.92
2023-05-14T09:34:23.228Z,29.02
2023-05-14T09:35:23.273Z,29.91
2023-05-14T09:36:23.325Z,30.39
2023-05-14T09:37:23.390Z,33.15
2023-05-14T09:38:23.444Z,31.95
2023-05-14T09:39:23.512Z,32.41
2023-05-14T09:40:24.182Z,32.08
2023-05-14T09:41:23.664Z,31.95
2023-05-14T09:42:23.700Z,31.33
2023-05-14T09:43:23.769Z,28.13
2023-05-14T09:44:23.824Z,30.51
2023-05-14T09:45:23.883Z,29.20
2023-05-14T09:46:23.950Z,30.69
2023-05-14T09:47:24.052Z,30.68
2023-05-14T09:48:24.059Z,29.33
2023-05-14T09:49:24.097Z,30.42
2023-05-14T09:50:24.325Z,31.80
2023-05-14T09:51:24.195Z,30.51
2023-05-14T09:52:24.269Z,30.25
2023-05-14T09:53:24.326Z,28.18
2023-05-14T09:54:24.359Z,30.04
2023-05-14T09:55:24.421Z,29.25
2023-05-14T09:56:24.469Z,28.64
2023-05-14T09:57:24.504Z,28.95
2023-05-14T09:58:24.563Z,30.05
2023-05-14T09:59:24.591Z,28.43
2023-05-14T10:00:24.886Z,25.64
2023-05-14T10:01:24.744Z,27.96
2023-05-14T10:02:24.777Z,28.98
2023-05-14T10:03:24.775Z,29.31
2023-05-14T10:04:24.852Z,26.44
2023-05-14T10:05:24.868Z,29.47
2023-05-14T10:06:24.914Z,29.46
2023-05-14T10:07:24.966Z,30.18
2023-05-14T10:08:25.015Z,29.28
2023-05-14T10:09:25.070Z,32.64
2023-05-14T10:10:25.521Z,28.71
2023-05-14T10:11:25.190Z,29.95
2023-05-14T10:12:25.219Z,33.91
2023-05-14T10:13:25.237Z,29.89
2023-05-14T10:14:25.278Z,26.21
2023-05-14T10:15:25.296Z,31.49
2023-05-14T10:16:25.362Z,30.43
2023-05-14T10:17:25.447Z,31.33
2023-05-14T10:18:25.501Z,28.68
2023-05-14T10:19:25.671Z,30.10
2023-05-14T10:20:25.732Z,29.00
2023-05-14T10:21:25.624Z,28.96
2023-05-14T10:22:25.697Z,28.04
2023-05-14T10:23:25.732Z,29.81
2023-05-14T10:24:25.847Z,29.39
2023-05-14T10:25:25.868Z,28.53
2023-05-14T10:26:25.929Z,28.92
2023-05-14T10:27:25.999Z,32.40
2023-05-14T10:28:26.040Z,27.75
2023-05-14T10:29:26.084Z,28.08
2023-05-14T10:30:26.289Z,29.36
2023-05-14T10:31:26.276Z,29.17
2023-05-14T10:32:26.322Z,29.09
2023-05-14T10:33:26.344Z,29.17
2023-05-14T10:34:26.381Z,30.18
2023-05-14T10:35:26.431Z,29.35
2023-05-14T10:36:26.489Z,29.13
2023-05-14T10:37:26.582Z,25.84
2023-05-14T10:38:26.610Z,27.64
2023-05-14T10:39:26.671Z,30.52
2023-05-14T10:40:26.988Z,30.86
2023-05-14T10:41:26.817Z,31.52
2023-05-14T10:42:26.859Z,32.06
2023-05-14T10:43:26.901Z,31.24
2023-05-14T10:44:26.976Z,30.66
2023-05-14T10:45:27.035Z,29.77
2023-05-14T10:46:27.185Z,30.84
2023-05-14T10:47:27.174Z,29.50
2023-05-14T10:48:27.217Z,31.52
2023-05-14T10:49:39.710Z,31.35
2023-05-14T10:50:28.301Z,31.63
2023-05-14T10:51:27.263Z,31.44
2023-05-14T10:52:27.252Z,27.48
2023-05-14T10:53:27.256Z,32.68
2023-05-14T10:54:27.239Z,32.37
2023-05-14T10:55:27.229Z,32.05
2023-05-14T10:56:27.221Z,34.32
2023-05-14T10:57:27.236Z,31.95
2023-05-14T10:58:27.215Z,35.02
2023-05-14T10:59:27.254Z,33.27
2023-05-14T11:00:27.340Z,34.19
2023-05-14T11:01:27.403Z,32.50
2023-05-14T11:02:27.497Z,33.05
2023-05-14T11:03:27.534Z,31.84
2023-05-14T11:04:27.587Z,34.51
2023-05-14T11:05:27.698Z,34.80
2023-05-14T11:06:27.719Z,34.26
2023-05-14T11:07:27.794Z,34.41
2023-05-14T11:08:29.355Z,34.43
2023-05-14T11:09:27.903Z,34.01
2023-05-14T11:10:27.960Z,33.47
2023-05-14T11:11:28.021Z,34.42
2023-05-14T11:12:28.088Z,33.19
2023-05-14T11:13:28.105Z,35.08
2023-05-14T11:14:28.159Z,35.30
2023-05-14T11:15:28.131Z,32.33
2023-05-14T11:16:28.233Z,34.11
2023-05-14T11:17:28.208Z,32.70
2023-05-14T11:18:28.230Z,34.19
2023-05-14T11:19:28.228Z,35.28
2023-05-14T11:20:28.225Z,34.54
2023-05-14T11:21:28.304Z,33.74
2023-05-14T11:22:28.288Z,31.54
2023-05-14T11:23:28.366Z,34.23
2023-05-14T11:24:28.354Z,35.88
2023-05-14T11:25:28.358Z,33.37
2023-05-14T11:26:28.411Z,32.93
2023-05-14T11:27:28.392Z,33.54
2023-05-14T11:28:28.415Z,34.76
2023-05-14T11:29:28.425Z,33.30
2023-05-14T11:30:28.456Z,31.71
2023-05-14T11:31:28.481Z,35.41
2023-05-14T11:32:28.483Z,35.79
2023-05-14T11:33:28.481Z,35.97
2023-05-14T11:34:28.510Z,37.10
2023-05-14T11:35:28.524Z,34.74
2023-05-14T11:36:28.522Z,33.75
2023-05-14T11:37:28.539Z,37.13
2023-05-14T11:38:28.535Z,33.87
2023-05-14T11:39:28.542Z,33.41
2023-05-14T11:40:28.566Z,33.24
2023-05-14T11:41:28.584Z,36.19
2023-05-14T11:42:28.566Z,33.64
2023-05-14T11:43:28.614Z,35.02
2023-05-14T11:44:28.592Z,39.55
2023-05-14T11:45:28.620Z,36.81
2023-05-14T11:46:28.659Z,35.51
2023-05-14T11:47:28.648Z,34.21
2023-05-14T11:48:28.656Z,33.62
2023-05-14T11:49:28.660Z,35.91
2023-05-14T11:50:28.698Z,35.96
2023-05-14T11:51:28.673Z,35.37
2023-05-14T11:52:28.728Z,34.93
2023-05-14T11:53:28.763Z,36.17
2023-05-14T11:54:28.797Z,36.44
2023-05-14T11:55:28.820Z,36.66
2023-05-14T11:56:28.861Z,35.67
2023-05-14T11:57:28.914Z,39.01
2023-05-14T11:58:28.942Z,36.51
2023-05-14T11:59:28.967Z,36.56
2023-05-14T12:00:29.009Z,38.37
2023-05-14T12:01:29.061Z,38.24
2023-05-14T12:02:29.173Z,40.75
2023-05-14T12:03:29.408Z,38.66
2023-05-14T12:04:29.358Z,40.03
2023-05-14T12:05:29.288Z,34.57
2023-05-14T12:06:29.355Z,39.85
2023-05-14T12:07:29.420Z,38.37
2023-05-14T12:08:29.476Z,39.59
2023-05-14T12:09:29.550Z,40.15
2023-05-14T12:10:29.617Z,39.31
2023-05-14T12:11:29.643Z,39.59
2023-05-14T12:12:29.671Z,41.29
2023-05-14T12:13:29.699Z,36.50
2023-05-14T12:14:29.718Z,40.01
2023-05-14T12:15:29.715Z,40.36
2023-05-14T12:16:29.760Z,40.87
2023-05-14T12:17:29.815Z,38.54
2023-05-14T12:18:29.922Z,39.58
2023-05-14T12:19:29.866Z,41.23
2023-05-14T12:20:29.840Z,37.25
2023-05-14T12:21:29.847Z,42.30
2023-05-14T12:22:29.870Z,37.70
2023-05-14T12:23:29.906Z,41.05
2023-05-14T12:24:29.909Z,37.36
2023-05-14T12:25:29.928Z,37.86
2023-05-14T12:26:29.916Z,39.26
2023-05-14T12:27:29.936Z,39.28
2023-05-14T12:28:29.915Z,40.30
2023-05-14T12:29:29.907Z,37.08
2023-05-14T12:30:29.904Z,39.11
2023-05-14T12:31:29.977Z,38.57
2023-05-14T12:32:29.900Z,38.56
2023-05-14T12:33:29.897Z,39.80
2023-05-14T12:34:29.888Z,37.96
2023-05-14T12:35:29.896Z,39.20
2023-05-14T12:36:29.932Z,39.74
2023-05-14T12:37:31.238Z,38.86
2023-05-14T12:38:29.997Z,40.88
2023-05-14T12:39:30.027Z,39.88
2023-05-14T12:40:30.047Z,39.54
2023-05-14T12:41:30.080Z,41.99
2023-05-14T12:42:30.098Z,40.89